Belem de Sao Francisco, Brazil
Current Conditions -  °F | °C
As of 7:00 PM on Thursday 20 Nov 2014 (Local Time) from SBJU Reporting Station
Few Clouds Few Clouds  
Wind Chill: 88°   Ceiling: Unl
Heat Index: 91°   Visibility: 6mi
Dew Point: 68°   Wind: 2mph
Humidity: 52%   Direction: 350°N
Pressure: 29.91"   Gusts: NA
Location:  8.75°S, 38.97°W
Report Text: SBJU 202200Z 35002KT 9999 FEW020 31/20 Q1013
Loading
Personal Weather Stations






























Interactive Weather Map New forecast layout! Learn more

10-Day Weather Forecast

Advertisements
Track Severe Weather on mobile